Time;durP1;ratioP1;P1;durP2;ratioP2;P2;SDS_P1;SDS_P2;PMS_P1;PMS_P2;Temp;Humidity;BMP_temperature;BMP_pressure;BME280_temperature;BME280_humidity;BME280_pressure;Samples;Min_cycle;Max_cycle;Signal;HPM_P1;HPM_P2
2023/04/05 00:02:12;;;;;;;2.60;2.40;;;8.10;99.90;;;;;;5110342;28;20247;-77
2023/04/05 00:04:49;;;;;;;3.30;3.00;;;8.20;99.90;;;;;;5112094;28;20205;-74
2023/04/05 00:07:17;;;;;;;3.70;3.40;;;8.10;99.90;;;;;;5114297;28;20763;-76
2023/04/05 00:09:45;;;;;;;4.00;2.70;;;8.10;99.90;;;;;;5114482;28;20675;-75
2023/04/05 00:12:11;;;;;;;3.47;3.03;;;8.10;99.90;;;;;;5114109;28;20200;-71
2023/04/05 00:14:40;;;;;;;4.87;4.20;;;7.90;99.90;;;;;;5114523;28;20664;-74
2023/04/05 00:17:07;;;;;;;3.10;2.80;;;7.90;99.90;;;;;;5114330;28;20288;-75
2023/04/05 00:19:35;;;;;;;4.10;2.53;;;7.90;99.90;;;;;;5114455;28;20762;-74
2023/04/05 00:22:02;;;;;;;5.63;2.80;;;7.90;99.90;;;;;;5114732;28;20614;-74
2023/04/05 00:24:29;;;;;;;3.50;3.00;;;7.90;99.90;;;;;;5114457;28;20243;-77
2023/04/05 00:26:57;;;;;;;5.40;2.93;;;7.90;99.90;;;;;;5114160;28;20288;-75
2023/04/05 00:29:24;;;;;;;3.00;2.70;;;7.90;99.90;;;;;;5113921;28;20253;-79
2023/04/05 00:31:52;;;;;;;3.87;2.60;;;7.70;99.90;;;;;;5114267;28;20266;-77
2023/04/05 00:34:19;;;;;;;3.30;3.00;;;7.70;99.90;;;;;;5114103;28;20236;-80
2023/04/05 00:36:46;;;;;;;4.03;2.97;;;7.60;99.90;;;;;;5114292;28;20240;-76
2023/04/05 00:39:13;;;;;;;3.93;2.73;;;7.60;99.90;;;;;;5113516;28;20268;-76
2023/04/05 00:41:40;;;;;;;4.83;3.40;;;7.50;99.90;;;;;;5114003;28;20232;-75
2023/04/05 00:44:07;;;;;;;3.13;2.80;;;7.50;99.90;;;;;;5113640;28;20205;-68
2023/04/05 00:46:36;;;;;;;3.17;2.87;;;7.50;99.90;;;;;;5113932;28;20212;-73
2023/04/05 00:49:05;;;;;;;5.30;3.07;;;7.50;99.90;;;;;;5114028;28;20680;-68
2023/04/05 00:51:33;;;;;;;4.00;3.43;;;7.50;99.90;;;;;;5114365;28;20200;-72
2023/04/05 00:54:01;;;;;;;5.90;3.10;;;7.50;99.90;;;;;;5114285;28;20227;-74
2023/04/05 00:56:29;;;;;;;2.83;2.20;;;7.40;99.90;;;;;;5113513;28;20200;-76
2023/04/05 00:58:55;;;;;;;3.07;2.60;;;7.40;99.90;;;;;;5113678;28;20256;-77
2023/04/05 01:01:25;;;;;;;3.47;3.20;;;7.30;99.90;;;;;;5113475;28;20255;-76
2023/04/05 01:03:53;;;;;;;4.97;2.93;;;7.30;99.90;;;;;;5113645;28;20257;-73
2023/04/05 01:06:36;;;;;;;4.10;2.97;;;7.30;99.90;;;;;;5113202;28;20228;-76
2023/04/05 01:09:09;;;;;;;4.77;3.23;;;7.40;99.90;;;;;;5113601;28;20663;-68
2023/04/05 01:11:39;;;;;;;4.47;3.40;;;7.30;99.90;;;;;;5113350;28;20204;-75
2023/04/05 01:14:06;;;;;;;3.93;3.57;;;7.20;99.90;;;;;;5113368;28;20352;-70
2023/04/05 01:16:33;;;;;;;3.93;3.30;;;7.30;99.90;;;;;;5113598;28;20232;-76
2023/04/05 01:19:00;;;;;;;4.93;4.43;;;7.20;99.90;;;;;;5113722;28;20302;-74
2023/04/05 01:21:51;;;;;;;3.23;2.93;;;7.20;99.90;;;;;;5112976;28;20244;-75
2023/04/05 01:24:31;;;;;;;4.50;3.87;;;7.20;99.90;;;;;;5112915;28;20201;-77
2023/04/05 01:27:05;;;;;;;4.03;3.40;;;7.10;99.90;;;;;;5113417;28;20201;-76
2023/04/05 01:30:03;;;;;;;3.47;3.17;;;7.20;99.90;;;;;;5113661;28;20229;-76
2023/04/05 01:32:55;;;;;;;4.60;2.80;;;7.20;99.90;;;;;;5100518;28;20205;-77
2023/04/05 01:35:29;;;;;;;4.50;3.30;;;7.10;99.90;;;;;;5112641;28;20212;-77
2023/04/05 01:38:00;;;;;;;3.57;3.17;;;7.20;99.90;;;;;;5112938;28;20207;-73
2023/04/05 01:40:28;;;;;;;3.33;2.90;;;7.20;99.90;;;;;;5112336;28;20237;-75
2023/04/05 01:42:55;;;;;;;3.73;3.03;;;7.20;99.90;;;;;;5112925;28;20224;-78
2023/04/05 01:45:23;;;;;;;5.77;4.27;;;7.10;99.90;;;;;;5112804;28;20208;-77
2023/04/05 01:47:50;;;;;;;3.93;3.13;;;7.10;99.90;;;;;;5112905;28;20243;-78
2023/04/05 01:50:17;;;;;;;7.27;4.10;;;7.10;99.90;;;;;;5112253;28;20197;-77
2023/04/05 01:52:44;;;;;;;4.47;3.20;;;7.10;99.90;;;;;;5112830;28;20239;-76
2023/04/05 01:55:11;;;;;;;6.03;3.43;;;7.10;99.90;;;;;;5112099;28;20247;-76
2023/04/05 01:57:38;;;;;;;3.93;3.53;;;7.10;99.90;;;;;;5112841;28;20229;-75
2023/04/05 02:00:06;;;;;;;5.10;3.20;;;7.00;99.90;;;;;;5112596;28;20239;-76
2023/04/05 02:02:34;;;;;;;4.47;4.03;;;7.00;99.90;;;;;;5112810;28;20231;-76
2023/04/05 02:05:01;;;;;;;4.20;3.77;;;7.00;99.90;;;;;;5112996;28;20197;-76
2023/04/05 02:07:28;;;;;;;7.63;3.00;;;6.90;99.90;;;;;;5111961;28;20237;-74
2023/04/05 02:09:55;;;;;;;3.83;2.97;;;7.00;99.90;;;;;;5112469;28;20266;-75
2023/04/05 02:12:22;;;;;;;4.10;3.80;;;7.10;99.90;;;;;;5112153;28;20264;-77
2023/04/05 02:14:50;;;;;;;4.93;3.30;;;6.90;99.90;;;;;;5112360;28;20668;-78
2023/04/05 02:17:17;;;;;;;6.60;3.67;;;6.90;99.90;;;;;;5111994;28;20201;-77
2023/04/05 02:19:46;;;;;;;3.77;3.27;;;6.80;99.90;;;;;;5112248;28;20232;-76
2023/04/05 02:22:13;;;;;;;3.93;3.50;;;6.90;99.90;;;;;;5111552;28;20836;-76
2023/04/05 02:24:40;;;;;;;5.63;4.47;;;6.90;99.90;;;;;;5112377;28;20294;-77
2023/04/05 02:27:07;;;;;;;4.43;3.60;;;6.80;99.90;;;;;;5110894;28;20236;-75
2023/04/05 02:29:34;;;;;;;4.83;4.00;;;6.60;99.90;;;;;;5112241;28;20207;-76
2023/04/05 02:32:01;;;;;;;6.97;4.50;;;6.60;99.90;;;;;;5112200;28;20587;-76
2023/04/05 02:34:28;;;;;;;6.03;4.27;;;6.70;99.90;;;;;;5111890;28;20715;-75
2023/04/05 02:36:57;;;;;;;6.33;3.60;;;6.70;99.90;;;;;;5111711;28;20204;-75
2023/04/05 02:39:25;;;;;;;3.80;3.50;;;6.80;99.90;;;;;;5111649;28;20240;-75
2023/04/05 02:41:52;;;;;;;4.97;3.77;;;6.70;99.90;;;;;;5112060;28;20231;-73
2023/04/05 02:44:19;;;;;;;5.37;4.70;;;6.60;99.90;;;;;;5111437;28;20236;-78
2023/04/05 02:46:45;;;;;;;4.40;3.70;;;6.50;99.90;;;;;;5111909;28;20255;-80
2023/04/05 02:49:12;;;;;;;4.73;3.80;;;6.60;99.90;;;;;;5111719;28;20295;-76
2023/04/05 02:51:39;;;;;;;6.10;4.03;;;6.60;99.90;;;;;;5111613;28;20611;-77
2023/04/05 02:54:08;;;;;;;8.33;4.03;;;6.50;99.90;;;;;;5111534;28;20196;-75
2023/04/05 02:56:35;;;;;;;5.57;3.93;;;6.60;99.90;;;;;;5111731;28;20238;-78
2023/04/05 02:59:03;;;;;;;4.07;3.67;;;6.50;99.90;;;;;;5111978;28;20232;-78
2023/04/05 03:01:31;;;;;;;5.10;4.57;;;6.50;99.90;;;;;;5111510;28;20300;-77
2023/04/05 03:03:58;;;;;;;4.17;3.77;;;6.40;99.90;;;;;;5111561;28;20254;-76
2023/04/05 03:06:25;;;;;;;4.70;4.20;;;6.50;99.90;;;;;;5110931;28;20712;-76
2023/04/05 03:08:52;;;;;;;5.03;4.60;;;6.40;99.90;;;;;;5111670;28;20236;-76
2023/04/05 03:11:20;;;;;;;5.30;3.20;;;6.30;99.90;;;;;;5110984;28;20213;-78
2023/04/05 03:13:47;;;;;;;4.87;4.30;;;6.40;99.90;;;;;;5111553;28;20227;-74
2023/04/05 03:16:14;;;;;;;5.23;3.43;;;6.40;99.90;;;;;;5110951;28;20236;-76
2023/04/05 03:18:41;;;;;;;4.23;3.90;;;6.40;99.90;;;;;;5111320;28;20224;-76
2023/04/05 03:21:11;;;;;;;4.57;3.87;;;6.40;99.90;;;;;;5111046;28;20243;-77
2023/04/05 03:23:37;;;;;;;4.17;3.70;;;6.40;99.90;;;;;;5111474;28;20204;-76
2023/04/05 03:26:05;;;;;;;4.60;4.30;;;6.30;99.90;;;;;;5111263;28;20232;-76
2023/04/05 03:28:33;;;;;;;3.20;2.90;;;6.30;99.90;;;;;;5111640;28;20201;-77
2023/04/05 03:31:00;;;;;;;4.97;4.57;;;6.30;99.90;;;;;;5111517;28;20237;-76
2023/04/05 03:33:27;;;;;;;4.03;3.30;;;6.30;99.90;;;;;;5111081;28;20228;-77
2023/04/05 03:35:54;;;;;;;5.50;4.17;;;6.20;99.90;;;;;;5111194;28;20240;-79
2023/04/05 03:38:21;;;;;;;5.30;3.97;;;6.10;99.90;;;;;;5111512;28;20236;-78
2023/04/05 03:40:48;;;;;;;4.43;4.00;;;6.10;99.90;;;;;;5115280;28;20703;-77
2023/04/05 03:43:15;;;;;;;6.47;4.57;;;6.20;99.90;;;;;;5115038;28;20229;-81
2023/04/05 03:45:43;;;;;;;8.13;4.40;;;6.20;99.90;;;;;;5115414;28;20251;-76
2023/04/05 03:48:10;;;;;;;4.27;3.87;;;6.10;99.90;;;;;;5114701;28;20232;-78
2023/04/05 03:50:37;;;;;;;6.93;4.53;;;6.10;99.90;;;;;;5115027;28;20251;-79
2023/04/05 03:53:04;;;;;;;5.00;4.50;;;6.00;99.90;;;;;;5115260;28;20228;-79
2023/04/05 03:55:32;;;;;;;4.60;4.07;;;6.00;99.90;;;;;;5115332;28;20240;-80
2023/04/05 03:57:58;;;;;;;6.27;4.07;;;6.00;99.90;;;;;;5115226;28;20229;-76
2023/04/05 04:00:25;;;;;;;6.70;5.10;;;6.10;99.90;;;;;;5114628;28;21214;-75
2023/04/05 04:02:54;;;;;;;7.53;4.93;;;6.00;99.90;;;;;;5114676;28;20246;-76
2023/04/05 04:05:21;;;;;;;5.13;4.63;;;6.10;99.90;;;;;;5114327;28;20549;-77
2023/04/05 04:07:48;;;;;;;4.83;4.43;;;6.00;99.90;;;;;;5114875;28;20664;-76
2023/04/05 04:10:17;;;;;;;5.10;4.70;;;5.90;99.90;;;;;;5114329;28;20336;-73
2023/04/05 04:12:44;;;;;;;4.57;4.17;;;6.00;99.90;;;;;;5114584;28;20238;-77
2023/04/05 04:15:11;;;;;;;4.93;4.13;;;5.90;99.90;;;;;;5114360;28;20292;-77
2023/04/05 04:17:39;;;;;;;4.20;3.80;;;5.90;99.90;;;;;;5114811;28;20204;-77
2023/04/05 04:20:09;;;;;;;5.23;4.60;;;5.80;99.90;;;;;;5114144;28;20271;-69
2023/04/05 04:22:39;;;;;;;5.83;4.03;;;6.00;99.90;;;;;;5114574;28;20240;-76
2023/04/05 04:25:09;;;;;;;4.50;4.10;;;5.90;99.90;;;;;;5114287;28;20201;-70
2023/04/05 04:27:39;;;;;;;4.83;4.33;;;5.80;99.90;;;;;;5114816;28;20205;-76
2023/04/05 04:30:09;;;;;;;5.90;5.30;;;5.80;99.90;;;;;;5114117;28;20755;-69
2023/04/05 04:32:51;;;;;;;7.27;6.17;;;5.90;99.90;;;;;;5114336;28;20641;-73
2023/04/05 04:35:23;;;;;;;4.63;4.20;;;5.70;99.90;;;;;;5114044;28;20200;-77
2023/04/05 04:37:57;;;;;;;4.53;4.07;;;5.70;99.90;;;;;;5114177;28;20204;-76
2023/04/05 04:40:25;;;;;;;4.87;4.40;;;5.70;99.90;;;;;;5113631;28;20239;-75
2023/04/05 04:42:53;;;;;;;7.83;5.47;;;5.70;99.90;;;;;;5114231;28;20197;-75
2023/04/05 04:45:20;;;;;;;4.70;4.27;;;5.80;99.90;;;;;;5113930;28;20246;-75
2023/04/05 04:47:51;;;;;;;5.73;5.23;;;5.70;99.90;;;;;;5113788;28;20638;-75
2023/04/05 04:50:21;;;;;;;8.30;5.40;;;5.70;99.90;;;;;;5112820;28;20201;-80
2023/04/05 04:52:48;;;;;;;5.33;4.83;;;5.70;99.90;;;;;;5114295;28;20197;-79
2023/04/05 04:55:15;;;;;;;7.33;5.00;;;5.80;99.90;;;;;;5113747;28;20205;-79
2023/04/05 04:57:42;;;;;;;6.67;4.90;;;5.70;99.90;;;;;;5113612;28;20205;-78
2023/04/05 05:00:11;;;;;;;5.07;4.57;;;5.80;99.90;;;;;;5113205;28;20264;-77
2023/04/05 05:02:39;;;;;;;5.23;4.30;;;5.70;99.90;;;;;;5113018;28;20284;-76
2023/04/05 05:05:07;;;;;;;5.20;4.70;;;5.50;99.90;;;;;;5113563;28;20215;-70
2023/04/05 05:07:37;;;;;;;8.70;4.87;;;5.40;99.90;;;;;;5111692;27;20208;-70
2023/04/05 05:10:05;;;;;;;6.30;5.47;;;5.40;99.90;;;;;;5113023;28;20212;-74
2023/04/05 05:12:32;;;;;;;7.27;4.67;;;5.40;99.90;;;;;;5113381;28;20698;-74
2023/04/05 05:14:59;;;;;;;6.10;5.20;;;5.40;99.90;;;;;;5111948;28;20236;-75
2023/04/05 05:17:26;;;;;;;7.70;6.27;;;5.30;99.90;;;;;;5112724;28;20735;-75
2023/04/05 05:19:53;;;;;;;5.47;4.63;;;5.20;99.90;;;;;;5113338;28;20264;-77
2023/04/05 05:22:20;;;;;;;6.13;5.33;;;5.30;99.90;;;;;;5113164;28;20637;-74
2023/04/05 05:24:48;;;;;;;6.63;5.17;;;5.30;99.90;;;;;;5113586;28;20228;-74
2023/04/05 05:27:15;;;;;;;5.27;4.77;;;5.30;99.90;;;;;;5112627;28;20232;-74
2023/04/05 05:29:42;;;;;;;6.73;5.60;;;5.30;99.90;;;;;;5113114;28;20231;-80
2023/04/05 05:32:13;;;;;;;5.97;5.37;;;5.30;99.90;;;;;;5112737;28;20332;-73
2023/04/05 05:34:44;;;;;;;5.50;5.00;;;5.20;99.90;;;;;;5113071;28;20201;-78
2023/04/05 05:37:12;;;;;;;5.70;5.10;;;5.20;99.90;;;;;;5112419;28;20723;-77
2023/04/05 05:39:39;;;;;;;7.27;5.77;;;5.20;99.90;;;;;;5112930;28;20228;-74
2023/04/05 05:42:08;;;;;;;7.93;5.37;;;5.40;99.90;;;;;;5112425;28;20648;-75
2023/04/05 05:44:35;;;;;;;6.50;5.47;;;5.40;99.90;;;;;;5112636;28;20690;-74
2023/04/05 05:47:04;;;;;;;5.37;4.87;;;5.30;99.90;;;;;;5113067;28;20200;-77
2023/04/05 05:49:31;;;;;;;7.40;5.70;;;5.20;99.90;;;;;;5112781;28;20205;-76
2023/04/05 05:51:59;;;;;;;11.13;5.67;;;5.20;99.90;;;;;;5112831;28;20307;-68
2023/04/05 05:54:26;;;;;;;7.33;6.37;;;5.10;99.90;;;;;;5111907;28;20212;-76
2023/04/05 05:56:53;;;;;;;5.73;5.23;;;5.20;99.90;;;;;;5112422;28;20201;-70
2023/04/05 05:59:22;;;;;;;7.33;5.50;;;5.30;99.90;;;;;;5111965;28;20201;-70
2023/04/05 06:01:50;;;;;;;9.93;6.40;;;5.30;99.90;;;;;;5111479;28;20255;-76
2023/04/05 06:04:17;;;;;;;5.80;5.20;;;5.30;99.90;;;;;;5111542;28;20580;-76
2023/04/05 06:06:46;;;;;;;8.60;6.47;;;5.40;99.90;;;;;;5112280;28;20299;-77
2023/04/05 06:09:13;;;;;;;5.83;5.33;;;5.50;99.90;;;;;;5111971;28;20219;-74
2023/04/05 06:11:40;;;;;;;5.73;5.20;;;5.50;99.90;;;;;;5112496;28;20235;-77
2023/04/05 06:14:07;;;;;;;6.43;5.67;;;5.40;99.90;;;;;;5111652;28;20667;-76
2023/04/05 06:16:36;;;;;;;5.97;5.37;;;5.40;99.90;;;;;;5112157;28;20589;-73
2023/04/05 06:19:03;;;;;;;7.37;6.43;;;5.50;99.90;;;;;;5110569;27;20244;-69
2023/04/05 06:21:32;;;;;;;8.10;5.40;;;5.50;99.90;;;;;;5110671;27;20303;-78
2023/04/05 06:23:59;;;;;;;9.77;5.43;;;5.60;99.90;;;;;;5108262;27;20216;-82
2023/04/05 06:26:29;;;;;;;5.83;5.00;;;5.70;99.90;;;;;;5110801;28;20292;-80
2023/04/05 06:28:56;;;;;;;5.87;4.90;;;5.70;99.90;;;;;;5111653;28;20262;-81
2023/04/05 06:31:27;;;;;;;5.97;5.13;;;5.80;99.90;;;;;;5111206;28;20261;-79
2023/04/05 06:33:55;;;;;;;5.87;5.03;;;5.80;99.90;;;;;;5111873;28;20212;-79
2023/04/05 06:36:22;;;;;;;5.33;4.83;;;6.00;99.90;;;;;;5111038;28;20208;-79
2023/04/05 06:38:50;;;;;;;6.17;4.90;;;6.00;99.90;;;;;;5110028;28;20240;-77
2023/04/05 06:41:17;;;;;;;9.13;5.07;;;6.00;99.90;;;;;;5111491;28;20275;-77
2023/04/05 06:43:44;;;;;;;8.53;5.10;;;6.00;99.90;;;;;;5110801;28;20236;-77
2023/04/05 06:46:12;;;;;;;8.53;5.43;;;6.10;99.90;;;;;;5110998;28;20251;-77
2023/04/05 06:48:39;;;;;;;5.57;4.70;;;6.30;99.90;;;;;;5111120;28;20201;-76
2023/04/05 06:51:08;;;;;;;6.77;5.43;;;6.70;99.90;;;;;;5110812;28;20227;-72
2023/04/05 06:53:34;;;;;;;6.17;4.70;;;7.10;99.90;;;;;;5111847;28;20243;-77
2023/04/05 06:56:02;;;;;;;8.20;5.33;;;7.40;99.90;;;;;;5112074;28;20232;-77
2023/04/05 06:58:29;;;;;;;4.50;4.07;;;7.50;99.90;;;;;;5111352;28;20232;-76
2023/04/05 07:00:57;;;;;;;5.07;3.87;;;7.50;99.90;;;;;;5111603;28;20410;-77
2023/04/05 07:03:24;;;;;;;11.23;5.23;;;7.50;99.90;;;;;;5109427;28;20240;-77
2023/04/05 07:05:52;;;;;;;8.83;5.20;;;7.70;99.90;;;;;;5111761;28;20266;-77
2023/04/05 07:08:21;;;;;;;5.90;5.00;;;7.90;99.90;;;;;;5110744;28;20727;-76
2023/04/05 07:10:49;;;;;;;4.87;4.37;;;8.00;99.90;;;;;;5111135;28;20240;-77
2023/04/05 07:13:17;;;;;;;5.47;4.13;;;8.00;99.90;;;;;;5109696;28;20668;-79
2023/04/05 07:15:44;;;;;;;7.77;5.47;;;8.10;99.90;;;;;;5109045;28;20207;-76
2023/04/05 07:18:11;;;;;;;6.93;5.50;;;8.20;99.90;;;;;;5106377;28;20648;-76
2023/04/05 07:20:38;;;;;;;5.13;4.67;;;8.20;99.90;;;;;;5111003;28;20283;-71
2023/04/05 07:23:06;;;;;;;7.03;4.57;;;8.40;99.90;;;;;;5111193;28;20240;-74
2023/04/05 07:25:34;;;;;;;5.20;4.47;;;8.30;99.90;;;;;;5107051;28;20204;-80
2023/04/05 07:28:01;;;;;;;5.27;4.77;;;8.30;99.90;;;;;;5111406;28;20295;-83
2023/04/05 07:30:28;;;;;;;5.90;4.73;;;8.50;99.90;;;;;;5114235;28;20204;-85
2023/04/05 07:32:55;;;;;;;9.00;5.23;;;8.40;99.90;;;;;;5115582;28;20261;-83
2023/04/05 07:35:22;;;;;;;6.67;4.93;;;8.50;99.90;;;;;;5110700;28;20215;-79
2023/04/05 07:37:51;;;;;;;6.00;5.03;;;8.50;99.90;;;;;;5111093;28;20216;-77
2023/04/05 07:40:18;;;;;;;4.83;4.37;;;8.50;99.90;;;;;;5109388;28;20759;-76
2023/04/05 07:42:46;;;;;;;8.10;5.67;;;8.40;99.90;;;;;;5110471;28;20244;-81
2023/04/05 07:45:13;;;;;;;8.97;6.50;;;8.30;99.90;;;;;;5110538;28;20328;-76
2023/04/05 07:47:40;;;;;;;6.20;5.47;;;8.40;99.90;;;;;;5111099;28;20241;-77
2023/04/05 07:50:08;;;;;;;7.07;5.50;;;8.40;99.90;;;;;;5110486;28;20240;-74
2023/04/05 07:52:35;;;;;;;7.33;5.60;;;8.40;99.90;;;;;;5110877;28;20231;-74
2023/04/05 07:55:02;;;;;;;6.37;5.73;;;8.20;99.90;;;;;;5111302;28;20201;-74
2023/04/05 07:57:29;;;;;;;8.93;6.00;;;8.20;99.90;;;;;;5110493;28;20258;-74
2023/04/05 07:59:58;;;;;;;9.90;5.97;;;8.20;99.90;;;;;;5109216;28;20273;-73
2023/04/05 08:02:25;;;;;;;8.40;6.33;;;8.10;99.90;;;;;;5109897;28;20236;-73
2023/04/05 08:04:51;;;;;;;6.20;4.77;;;8.20;99.90;;;;;;5110440;28;20247;-73
2023/04/05 08:07:18;;;;;;;6.63;5.43;;;8.30;99.90;;;;;;5110412;28;20213;-73
2023/04/05 08:09:45;;;;;;;10.20;6.20;;;8.40;99.90;;;;;;5110635;28;20240;-73
2023/04/05 08:12:12;;;;;;;9.57;5.67;;;8.40;99.90;;;;;;5110036;28;20246;-71
2023/04/05 08:14:39;;;;;;;6.77;5.50;;;8.50;99.90;;;;;;5110892;28;20349;-72
2023/04/05 08:17:07;;;;;;;7.83;5.30;;;8.70;99.90;;;;;;5110153;28;20233;-72
2023/04/05 08:19:34;;;;;;;5.80;4.57;;;8.70;99.90;;;;;;5110648;28;20237;-72
2023/04/05 08:22:01;;;;;;;7.90;4.63;;;8.50;99.90;;;;;;5110562;28;20809;-72
2023/04/05 08:24:28;;;;;;;5.30;4.80;;;8.90;99.90;;;;;;5108395;28;20205;-72
2023/04/05 08:26:55;;;;;;;5.83;4.73;;;9.40;99.90;;;;;;5113095;28;20247;-72
2023/04/05 08:29:22;;;;;;;5.33;4.37;;;9.30;99.90;;;;;;5113470;28;20259;-72
2023/04/05 08:31:49;;;;;;;5.30;4.80;;;10.40;99.90;;;;;;5114055;28;20233;-72
2023/04/05 08:34:17;;;;;;;11.87;6.07;;;10.50;99.90;;;;;;5113347;28;20205;-72
2023/04/05 08:36:44;;;;;;;7.80;4.73;;;10.00;99.90;;;;;;5113976;28;20594;-72
2023/04/05 08:39:11;;;;;;;4.73;4.30;;;9.80;99.90;;;;;;5113497;28;20630;-73
2023/04/05 08:41:45;;;;;;;4.30;3.90;;;9.70;99.90;;;;;;5113579;27;20232;-73
2023/04/05 08:44:12;;;;;;;4.70;4.20;;;9.90;99.90;;;;;;5113721;28;20244;-72
2023/04/05 08:46:39;;;;;;;4.40;4.00;;;10.80;99.90;;;;;;5114069;28;20240;-72
2023/04/05 08:49:07;;;;;;;5.23;4.13;;;10.30;99.90;;;;;;5113931;28;20245;-72
2023/04/05 08:51:37;;;;;;;4.00;3.70;;;10.00;99.90;;;;;;5114074;28;20211;-72
2023/04/05 08:54:05;;;;;;;6.33;5.20;;;10.20;99.90;;;;;;5113744;28;20653;-72
2023/04/05 08:56:33;;;;;;;6.23;3.47;;;10.20;99.90;;;;;;5114478;28;20301;-73
2023/04/05 08:59:02;;;;;;;4.77;3.63;;;10.20;99.90;;;;;;5113339;28;20240;-73
2023/04/05 09:01:31;;;;;;;5.40;3.97;;;10.50;99.90;;;;;;5112033;28;20233;-76
2023/04/05 09:04:01;;;;;;;5.27;4.17;;;10.40;99.90;;;;;;5111615;28;20228;-74
2023/04/05 09:06:28;;;;;;;3.90;2.97;;;10.50;99.90;;;;;;5107448;28;20244;-75
2023/04/05 09:08:58;;;;;;;4.43;3.67;;;10.80;99.90;;;;;;5093617;28;20224;-76
2023/04/05 09:11:25;;;;;;;3.80;3.40;;;10.90;99.90;;;;;;5112510;28;20240;-74
2023/04/05 09:13:52;;;;;;;4.13;3.73;;;11.00;99.90;;;;;;5112755;28;20239;-73
2023/04/05 09:16:20;;;;;;;6.38;4.72;;;11.30;99.90;;;;;;5112053;28;20638;-73
2023/04/05 09:18:47;;;;;;;6.22;4.20;;;11.30;99.90;;;;;;5106240;28;20275;-74
2023/04/05 09:21:16;;;;;;;4.00;3.63;;;11.60;99.90;;;;;;5109551;27;20236;-75
2023/04/05 09:23:52;;;;;;;4.07;2.97;;;12.00;99.90;;;;;;5112506;28;20296;-71
2023/04/05 09:26:23;;;;;;;4.05;3.00;;;12.30;99.90;;;;;;5112687;28;20204;-72
2023/04/05 09:28:50;;;;;;;4.38;3.53;;;12.50;99.90;;;;;;5112749;28;20680;-75
2023/04/05 09:31:34;;;;;;;6.05;3.67;;;12.50;99.90;;;;;;5112490;28;20232;-74
2023/04/05 09:34:03;;;;;;;4.75;3.13;;;13.00;99.90;;;;;;5113283;28;20244;-74
2023/04/05 09:36:31;;;;;;;3.45;3.03;;;13.30;99.90;;;;;;5112906;28;20241;-73
2023/04/05 09:39:09;;;;;;;3.58;3.28;;;15.10;99.90;;;;;;5112818;28;20248;-72
2023/04/05 09:41:38;;;;;;;3.88;2.70;;;15.30;99.90;;;;;;5112841;28;20228;-76
2023/04/05 09:44:05;;;;;;;2.53;2.30;;;16.30;99.90;;;;;;5112711;28;20205;-76
2023/04/05 09:46:34;;;;;;;4.47;3.03;;;17.40;99.90;;;;;;5113233;28;20250;-73
2023/04/05 09:49:02;;;;;;;3.15;2.85;;;18.00;99.90;;;;;;5113071;28;20201;-73
2023/04/05 09:51:33;;;;;;;6.65;3.08;;;15.80;99.90;;;;;;5112675;28;20200;-73
2023/04/05 09:54:02;;;;;;;5.10;3.47;;;14.80;99.90;;;;;;5112987;28;20236;-76
2023/04/05 09:56:31;;;;;;;5.72;3.08;;;15.60;99.90;;;;;;5111072;27;20688;-73
2023/04/05 09:59:06;;;;;;;2.53;2.33;;;16.50;99.90;;;;;;5108074;28;20262;-75
2023/04/05 10:01:34;;;;;;;6.47;3.50;;;21.50;99.90;;;;;;5111705;27;20263;-73
2023/04/05 10:04:01;;;;;;;3.88;3.13;;;21.10;99.90;;;;;;5112558;28;20201;-74
2023/04/05 10:06:39;;;;;;;3.63;2.88;;;17.10;99.90;;;;;;5111844;28;20680;-73
2023/04/05 10:09:07;;;;;;;3.88;3.25;;;17.50;99.90;;;;;;5112275;28;20232;-74
2023/04/05 10:11:35;;;;;;;3.90;2.38;;;17.90;99.90;;;;;;5112043;28;20239;-73
2023/04/05 10:14:05;;;;;;;4.18;3.00;;;16.00;99.90;;;;;;5110797;28;20236;-74
2023/04/05 10:16:38;;;;;;;4.10;3.70;;;15.80;99.90;;;;;;5112225;28;20233;-73
2023/04/05 10:19:09;;;;;;;3.40;3.10;;;15.70;99.90;;;;;;5112030;28;20555;-77
2023/04/05 10:21:41;;;;;;;3.33;3.03;;;16.50;99.90;;;;;;5091420;28;20221;-77
2023/04/05 10:24:18;;;;;;;6.93;3.83;;;18.60;99.90;;;;;;5091324;28;20207;-79
2023/04/05 10:26:52;;;;;;;4.53;2.55;;;17.50;99.90;;;;;;5091596;28;20244;-78
2023/04/05 10:29:28;;;;;;;4.40;2.85;;;15.90;99.90;;;;;;5090944;28;20237;-78
2023/04/05 10:32:03;;;;;;;3.47;2.53;;;17.90;99.90;;;;;;5100144;28;20766;-77
2023/04/05 10:34:39;;;;;;;11.77;4.15;;;16.00;99.90;;;;;;5110318;28;20235;-78
2023/04/05 10:37:07;;;;;;;4.82;2.83;;;14.70;99.90;;;;;;5111315;28;20212;-75
2023/04/05 10:39:40;;;;;;;3.10;2.80;;;13.90;99.90;;;;;;5111934;28;20236;-76
2023/04/05 10:42:11;;;;;;;3.05;2.60;;;13.80;99.90;;;;;;5111019;28;20265;-77
2023/04/05 10:44:41;;;;;;;4.40;2.45;;;14.00;99.90;;;;;;5111093;28;20204;-77
2023/04/05 10:47:13;;;;;;;4.22;3.15;;;13.90;99.90;;;;;;5111244;28;20240;-78
2023/04/05 10:49:46;;;;;;;3.38;3.10;;;13.90;99.90;;;;;;5110822;28;20251;-79
2023/04/05 10:52:14;;;;;;;4.13;2.97;;;13.90;99.90;;;;;;5111069;28;20695;-78
2023/04/05 10:54:41;;;;;;;5.07;2.78;;;14.00;99.90;;;;;;5111395;28;20637;-77
2023/04/05 10:57:09;;;;;;;3.85;2.63;;;14.10;99.90;;;;;;5111440;28;20254;-78
2023/04/05 10:59:42;;;;;;;2.45;2.25;;;14.50;99.90;;;;;;5110380;28;20239;-77
2023/04/05 11:02:10;;;;;;;2.80;2.38;;;14.50;99.90;;;;;;5110762;28;20264;-78
2023/04/05 11:04:39;;;;;;;3.30;2.00;;;14.50;99.90;;;;;;5110418;28;20691;-78
2023/04/05 11:07:14;;;;;;;4.10;2.75;;;13.90;99.90;;;;;;5110804;28;20240;-76
2023/04/05 11:09:51;;;;;;;5.22;2.35;;;14.00;99.90;;;;;;5111277;28;20630;-78
2023/04/05 11:12:18;;;;;;;2.28;2.05;;;14.30;99.90;;;;;;5110831;28;20204;-78
2023/04/05 11:14:47;;;;;;;2.60;2.20;;;14.30;99.90;;;;;;5111550;28;20208;-78
2023/04/05 11:17:28;;;;;;;3.00;2.05;;;14.30;99.90;;;;;;5110794;28;20228;-78
2023/04/05 11:20:03;;;;;;;2.97;1.95;;;14.10;99.90;;;;;;5106001;28;20197;-79
2023/04/05 11:22:30;;;;;;;4.15;2.28;;;14.50;99.90;;;;;;5110777;28;20267;-77
2023/04/05 11:25:08;;;;;;;4.78;2.22;;;14.40;99.90;;;;;;5109579;28;20240;-77
2023/04/05 11:27:36;;;;;;;2.20;1.75;;;14.00;99.90;;;;;;5109878;28;20204;-78
2023/04/05 11:30:06;;;;;;;2.03;1.70;;;14.30;99.90;;;;;;5091792;28;20586;-76
2023/04/05 11:32:40;;;;;;;1.95;1.65;;;14.60;99.90;;;;;;5111505;28;20228;-81
2023/04/05 11:35:16;;;;;;;4.50;3.10;;;14.70;99.90;;;;;;5110837;28;20206;-78
2023/04/05 11:38:21;;;;;;;2.92;2.60;;;14.80;99.90;;;;;;5110608;28;20257;-79
2023/04/05 11:40:48;;;;;;;2.08;1.67;;;14.80;99.90;;;;;;5079171;28;20348;-79
2023/04/05 11:43:15;;;;;;;3.67;2.08;;;14.80;99.90;;;;;;5121703;28;20261;-80
2023/04/05 11:45:49;;;;;;;2.35;1.48;;;14.70;99.90;;;;;;5119298;28;20688;-80
2023/04/05 11:48:15;;;;;;;2.50;1.80;;;14.70;99.90;;;;;;5109851;28;20215;-80
2023/04/05 11:50:44;;;;;;;5.32;3.55;;;14.70;99.90;;;;;;5110673;28;20237;-75
2023/04/05 11:53:11;;;;;;;4.30;2.85;;;14.70;99.90;;;;;;5110299;28;20208;-74
2023/04/05 11:55:39;;;;;;;4.60;1.75;;;14.90;99.90;;;;;;5110795;28;20212;-75
2023/04/05 11:58:16;;;;;;;2.35;2.15;;;14.90;99.90;;;;;;5110654;28;20240;-74
2023/04/05 12:00:45;;;;;;;3.40;2.03;;;15.30;99.90;;;;;;5111956;28;20205;-75
2023/04/05 12:03:13;;;;;;;3.78;1.90;;;15.30;99.90;;;;;;5114178;28;20268;-75
2023/04/05 12:05:50;;;;;;;1.88;1.55;;;15.30;99.90;;;;;;5114499;28;20204;-75
2023/04/05 12:08:18;;;;;;;3.13;1.90;;;15.40;99.90;;;;;;5114503;28;20203;-75
2023/04/05 12:10:45;;;;;;;2.60;2.03;;;15.10;99.90;;;;;;5114718;28;20240;-75
2023/04/05 12:13:12;;;;;;;2.03;1.63;;;15.10;99.90;;;;;;5114257;28;20260;-76
2023/04/05 12:15:40;;;;;;;5.35;1.38;;;15.20;99.90;;;;;;5114855;28;20246;-75
2023/04/05 12:18:15;;;;;;;2.17;1.88;;;15.30;99.90;;;;;;5113544;28;20229;-76
2023/04/05 12:20:42;;;;;;;2.17;1.58;;;15.30;99.90;;;;;;5113993;28;20204;-74
2023/04/05 12:23:09;;;;;;;4.45;1.63;;;15.30;99.90;;;;;;5113789;28;20778;-76
2023/04/05 12:25:37;;;;;;;2.28;1.85;;;15.40;99.90;;;;;;5114424;28;20247;-76
2023/04/05 12:28:07;;;;;;;2.63;1.92;;;15.40;99.90;;;;;;5114212;28;20229;-74
2023/04/05 12:30:37;;;;;;;1.88;1.40;;;15.60;99.90;;;;;;5112461;28;20209;-73
2023/04/05 12:33:08;;;;;;;5.00;2.03;;;15.50;99.90;;;;;;5113653;28;20218;-74
2023/04/05 12:35:38;;;;;;;2.80;1.33;;;15.50;99.90;;;;;;5114182;28;20393;-73
2023/04/05 12:38:07;;;;;;;1.90;1.33;;;15.70;99.90;;;;;;5114127;28;20248;-73
2023/04/05 12:40:35;;;;;;;1.65;1.55;;;16.00;99.90;;;;;;5113939;28;20254;-74
2023/04/05 12:43:03;;;;;;;2.50;1.60;;;15.90;99.90;;;;;;5113788;28;20235;-73
2023/04/05 12:45:40;;;;;;;3.47;1.88;;;15.70;99.90;;;;;;5114026;28;20587;-73
2023/04/05 12:48:09;;;;;;;2.05;1.48;;;16.00;99.90;;;;;;5113517;28;20208;-74
2023/04/05 12:50:43;;;;;;;2.28;1.70;;;16.00;99.90;;;;;;5114052;28;20205;-75
2023/04/05 12:53:16;;;;;;;2.65;1.50;;;16.20;99.90;;;;;;5113308;28;20241;-73
2023/04/05 12:55:47;;;;;;;1.67;1.38;;;16.30;99.90;;;;;;5113875;28;20204;-74
2023/04/05 12:58:16;;;;;;;2.78;1.42;;;16.20;99.90;;;;;;5113288;28;20236;-73
2023/04/05 13:00:44;;;;;;;1.77;1.42;;;16.20;99.90;;;;;;5112654;28;20205;-73
2023/04/05 13:03:16;;;;;;;3.35;1.70;;;16.20;99.90;;;;;;5112475;27;20621;-73